sensor_id;sensor_type;location;lat;lon;timestamp;pressure;altitude;pressure_sealevel;temperature;humidity
11343;BME280;5726;42.160;24.746;2022-09-16T00:00:30;98817.44;;;25.31;68.55
11343;BME280;5726;42.160;24.746;2022-09-16T00:02:56;98830.06;;;25.18;70.24
11343;BME280;5726;42.160;24.746;2022-09-16T00:05:22;98820.84;;;25.52;68.79
11343;BME280;5726;42.160;24.746;2022-09-16T00:07:48;98812.50;;;25.66;68.39
11343;BME280;5726;42.160;24.746;2022-09-16T00:10:13;98807.25;;;25.85;67.04
11343;BME280;5726;42.160;24.746;2022-09-16T00:12:39;98803.97;;;25.53;68.48
11343;BME280;5726;42.160;24.746;2022-09-16T00:15:06;98799.34;;;25.40;68.82
11343;BME280;5726;42.160;24.746;2022-09-16T00:17:32;98803.00;;;25.20;70.39
11343;BME280;5726;42.160;24.746;2022-09-16T00:19:58;98803.63;;;25.45;69.32
11343;BME280;5726;42.160;24.746;2022-09-16T00:22:26;98810.28;;;25.44;68.93
11343;BME280;5726;42.160;24.746;2022-09-16T00:24:51;98808.72;;;25.43;69.80
11343;BME280;5726;42.160;24.746;2022-09-16T00:27:17;98806.47;;;25.31;69.94
11343;BME280;5726;42.160;24.746;2022-09-16T00:29:42;98799.75;;;25.39;70.08
11343;BME280;5726;42.160;24.746;2022-09-16T00:32:07;98798.88;;;25.48;69.38
11343;BME280;5726;42.160;24.746;2022-09-16T00:34:33;98799.88;;;25.75;68.98
11343;BME280;5726;42.160;24.746;2022-09-16T00:36:58;98795.13;;;25.79;68.36
11343;BME280;5726;42.160;24.746;2022-09-16T00:39:24;98800.78;;;25.58;69.28
11343;BME280;5726;42.160;24.746;2022-09-16T00:41:49;98795.31;;;25.51;69.43
11343;BME280;5726;42.160;24.746;2022-09-16T00:44:55;98808.63;;;25.56;68.95
11343;BME280;5726;42.160;24.746;2022-09-16T00:47:33;98806.94;;;25.76;68.48
11343;BME280;5726;42.160;24.746;2022-09-16T00:50:36;98807.31;;;25.78;68.33
11343;BME280;5726;42.160;24.746;2022-09-16T00:53:04;98809.38;;;25.64;69.13
11343;BME280;5726;42.160;24.746;2022-09-16T00:55:34;98810.94;;;25.61;69.35
11343;BME280;5726;42.160;24.746;2022-09-16T00:58:09;98814.03;;;25.70;69.08
11343;BME280;5726;42.160;24.746;2022-09-16T01:00:36;98812.09;;;25.67;69.13
11343;BME280;5726;42.160;24.746;2022-09-16T01:03:03;98821.63;;;26.03;68.06
11343;BME280;5726;42.160;24.746;2022-09-16T01:05:29;98824.09;;;25.91;68.13
11343;BME280;5726;42.160;24.746;2022-09-16T01:07:55;98822.59;;;25.79;68.49
11343;BME280;5726;42.160;24.746;2022-09-16T01:10:23;98822.28;;;25.70;69.03
11343;BME280;5726;42.160;24.746;2022-09-16T01:12:52;98828.19;;;25.69;69.47
11343;BME280;5726;42.160;24.746;2022-09-16T01:15:21;98826.63;;;25.68;69.51
11343;BME280;5726;42.160;24.746;2022-09-16T01:18:16;98829.59;;;25.91;68.79
11343;BME280;5726;42.160;24.746;2022-09-16T01:29:54;98838.41;;;25.68;69.74
11343;BME280;5726;42.160;24.746;2022-09-16T01:32:52;98833.47;;;25.93;68.37
11343;BME280;5726;42.160;24.746;2022-09-16T01:38:56;98833.28;;;25.70;68.90
11343;BME280;5726;42.160;24.746;2022-09-16T01:43:42;98825.47;;;25.58;69.33
11343;BME280;5726;42.160;24.746;2022-09-16T01:46:21;98823.47;;;25.69;69.12
11343;BME280;5726;42.160;24.746;2022-09-16T01:54:40;98827.88;;;25.56;68.87
11343;BME280;5726;42.160;24.746;2022-09-16T01:57:15;98820.03;;;25.55;68.99
11343;BME280;5726;42.160;24.746;2022-09-16T01:59:52;98822.75;;;25.58;68.86
11343;BME280;5726;42.160;24.746;2022-09-16T02:04:55;98826.78;;;25.37;69.70
11343;BME280;5726;42.160;24.746;2022-09-16T02:07:26;98829.09;;;25.45;69.42
11343;BME280;5726;42.160;24.746;2022-09-16T02:09:57;98830.06;;;25.18;70.28
11343;BME280;5726;42.160;24.746;2022-09-16T02:12:28;98830.06;;;25.18;70.44
11343;BME280;5726;42.160;24.746;2022-09-16T02:15:01;98838.66;;;25.20;69.78
11343;BME280;5726;42.160;24.746;2022-09-16T02:17:31;98827.22;;;25.32;69.66
11343;BME280;5726;42.160;24.746;2022-09-16T02:20:09;98833.19;;;25.20;70.35
11343;BME280;5726;42.160;24.746;2022-09-16T02:22:40;98832.50;;;25.02;70.74
11343;BME280;5726;42.160;24.746;2022-09-16T02:25:08;98841.06;;;25.14;70.55
11343;BME280;5726;42.160;24.746;2022-09-16T02:27:37;98830.78;;;25.29;69.83
11343;BME280;5726;42.160;24.746;2022-09-16T02:30:14;98846.53;;;25.18;69.80
11343;BME280;5726;42.160;24.746;2022-09-16T02:32:44;98847.75;;;24.96;70.38
11343;BME280;5726;42.160;24.746;2022-09-16T02:35:15;98857.19;;;25.02;70.08
11343;BME280;5726;42.160;24.746;2022-09-16T02:37:49;98859.09;;;25.12;69.75
11343;BME280;5726;42.160;24.746;2022-09-16T02:40:31;98851.69;;;25.02;69.70
11343;BME280;5726;42.160;24.746;2022-09-16T02:42:59;98855.59;;;25.08;68.84
11343;BME280;5726;42.160;24.746;2022-09-16T02:48:39;98872.63;;;24.48;70.80
11343;BME280;5726;42.160;24.746;2022-09-16T02:51:37;98868.69;;;24.49;71.21
11343;BME280;5726;42.160;24.746;2022-09-16T02:56:54;98861.63;;;24.58;70.41
11343;BME280;5726;42.160;24.746;2022-09-16T02:59:21;98867.13;;;24.48;70.81
11343;BME280;5726;42.160;24.746;2022-09-16T03:01:47;98857.72;;;24.49;70.69
11343;BME280;5726;42.160;24.746;2022-09-16T03:04:14;98846.31;;;24.67;69.76
11343;BME280;5726;42.160;24.746;2022-09-16T03:06:40;98844.75;;;24.63;70.12
11343;BME280;5726;42.160;24.746;2022-09-16T03:09:10;98853.75;;;24.63;70.35
11343;BME280;5726;42.160;24.746;2022-09-16T03:15:19;98849.03;;;24.78;69.39
11343;BME280;5726;42.160;24.746;2022-09-16T03:23:49;98847.50;;;24.56;70.21
11343;BME280;5726;42.160;24.746;2022-09-16T03:26:47;98843.22;;;24.58;70.02
11343;BME280;5726;42.160;24.746;2022-09-16T03:34:43;98863.19;;;24.49;69.77
11343;BME280;5726;42.160;24.746;2022-09-16T03:37:13;98842.06;;;24.46;69.84
11343;BME280;5726;42.160;24.746;2022-09-16T03:39:40;98843.63;;;24.40;69.68
11343;BME280;5726;42.160;24.746;2022-09-16T03:42:08;98857.75;;;24.42;69.24
11343;BME280;5726;42.160;24.746;2022-09-16T03:44:39;98859.31;;;24.11;70.78
11343;BME280;5726;42.160;24.746;2022-09-16T03:47:08;98857.75;;;23.90;71.98
11343;BME280;5726;42.160;24.746;2022-09-16T03:49:35;98832.31;;;24.10;70.92
11343;BME280;5726;42.160;24.746;2022-09-16T03:52:01;98825.28;;;23.99;70.84
11343;BME280;5726;42.160;24.746;2022-09-16T03:54:30;98819.41;;;24.03;70.08
11343;BME280;5726;42.160;24.746;2022-09-16T03:56:56;98817.44;;;24.11;69.87
11343;BME280;5726;42.160;24.746;2022-09-16T03:59:21;98829.56;;;24.17;69.38
11343;BME280;5726;42.160;24.746;2022-09-16T04:01:46;98820.97;;;24.36;69.54
11343;BME280;5726;42.160;24.746;2022-09-16T04:04:12;98813.88;;;24.28;69.11
11343;BME280;5726;42.160;24.746;2022-09-16T04:06:38;98823.31;;;23.78;71.58
11343;BME280;5726;42.160;24.746;2022-09-16T04:09:04;98842.09;;;23.90;71.40
11343;BME280;5726;42.160;24.746;2022-09-16T04:11:31;98852.25;;;24.31;69.28
11343;BME280;5726;42.160;24.746;2022-09-16T04:13:57;98852.25;;;24.14;70.43
11343;BME280;5726;42.160;24.746;2022-09-16T04:16:24;98854.63;;;23.81;72.50
11343;BME280;5726;42.160;24.746;2022-09-16T04:18:49;98846.78;;;23.93;72.22
11343;BME280;5726;42.160;24.746;2022-09-16T04:21:15;98842.88;;;24.01;71.91
11343;BME280;5726;42.160;24.746;2022-09-16T04:23:41;98840.53;;;24.00;72.52
11343;BME280;5726;42.160;24.746;2022-09-16T04:26:07;98852.25;;;24.07;72.25
11343;BME280;5726;42.160;24.746;2022-09-16T04:28:34;98852.25;;;24.07;72.37
11343;BME280;5726;42.160;24.746;2022-09-16T04:31:05;98854.22;;;24.13;72.05
11343;BME280;5726;42.160;24.746;2022-09-16T04:33:32;98847.56;;;24.21;71.85
11343;BME280;5726;42.160;24.746;2022-09-16T04:36:09;98846.78;;;24.35;71.57
11343;BME280;5726;42.160;24.746;2022-09-16T04:38:37;98852.28;;;24.35;71.22
11343;BME280;5726;42.160;24.746;2022-09-16T04:43:33;98851.88;;;24.05;72.91
11343;BME280;5726;42.160;24.746;2022-09-16T04:45:59;98855.41;;;24.40;71.75
11343;BME280;5726;42.160;24.746;2022-09-16T04:48:25;98858.84;;;24.72;70.31
11343;BME280;5726;42.160;24.746;2022-09-16T04:50:51;98859.53;;;24.93;68.04
11343;BME280;5726;42.160;24.746;2022-09-16T04:53:18;98850.94;;;24.84;69.06
11343;BME280;5726;42.160;24.746;2022-09-16T04:55:44;98851.31;;;24.93;69.19
11343;BME280;5726;42.160;24.746;2022-09-16T04:58:10;98866.09;;;25.20;68.47
11343;BME280;5726;42.160;24.746;2022-09-16T05:00:35;98869.09;;;25.49;66.16
11343;BME280;5726;42.160;24.746;2022-09-16T05:03:01;98878.59;;;25.31;66.45
11343;BME280;5726;42.160;24.746;2022-09-16T05:05:27;98878.34;;;24.98;68.33
11343;BME280;5726;42.160;24.746;2022-09-16T05:07:52;98881.09;;;24.91;68.72
11343;BME280;5726;42.160;24.746;2022-09-16T05:10:18;98881.81;;;25.12;67.99
11343;BME280;5726;42.160;24.746;2022-09-16T05:12:43;98890.81;;;25.20;66.79
11343;BME280;5726;42.160;24.746;2022-09-16T05:15:09;98885.75;;;25.08;67.52
11343;BME280;5726;42.160;24.746;2022-09-16T05:17:34;98883.00;;;25.15;67.73
11343;BME280;5726;42.160;24.746;2022-09-16T05:20:00;98880.09;;;25.43;65.99
11343;BME280;5726;42.160;24.746;2022-09-16T05:22:25;98871.78;;;25.53;65.79
11343;BME280;5726;42.160;24.746;2022-09-16T05:24:50;98867.41;;;25.73;65.83
11343;BME280;5726;42.160;24.746;2022-09-16T05:27:16;98861.34;;;25.95;64.77
11343;BME280;5726;42.160;24.746;2022-09-16T05:29:41;98850.31;;;26.46;63.12
11343;BME280;5726;42.160;24.746;2022-09-16T05:32:07;98858.47;;;26.89;61.46
11343;BME280;5726;42.160;24.746;2022-09-16T05:34:32;98848.53;;;27.28;60.21
11343;BME280;5726;42.160;24.746;2022-09-16T05:37:00;98845.13;;;27.47;59.34
11343;BME280;5726;42.160;24.746;2022-09-16T05:39:26;98838.28;;;27.85;58.06
11343;BME280;5726;42.160;24.746;2022-09-16T05:41:55;98837.78;;;28.16;56.64
11343;BME280;5726;42.160;24.746;2022-09-16T05:44:21;98833.22;;;28.29;56.36
11343;BME280;5726;42.160;24.746;2022-09-16T05:46:47;98837.84;;;28.54;55.96
11343;BME280;5726;42.160;24.746;2022-09-16T05:49:12;98830.47;;;28.71;54.81
11343;BME280;5726;42.160;24.746;2022-09-16T05:51:39;98842.09;;;29.01;53.54
11343;BME280;5726;42.160;24.746;2022-09-16T05:54:07;98841.34;;;29.16;52.87
11343;BME280;5726;42.160;24.746;2022-09-16T05:56:32;98842.44;;;29.03;53.60
11343;BME280;5726;42.160;24.746;2022-09-16T05:58:59;98834.00;;;29.10;52.92
11343;BME280;5726;42.160;24.746;2022-09-16T06:01:34;98838.63;;;29.51;51.91
11343;BME280;5726;42.160;24.746;2022-09-16T06:04:02;98840.53;;;29.70;51.25
11343;BME280;5726;42.160;24.746;2022-09-16T06:06:31;98837.22;;;29.94;50.81
11343;BME280;5726;42.160;24.746;2022-09-16T06:08:58;98837.47;;;30.16;48.27
11343;BME280;5726;42.160;24.746;2022-09-16T06:11:26;98842.94;;;30.35;48.59
11343;BME280;5726;42.160;24.746;2022-09-16T06:13:59;98850.94;;;30.45;49.49
11343;BME280;5726;42.160;24.746;2022-09-16T06:16:27;98844.94;;;30.35;50.16
11343;BME280;5726;42.160;24.746;2022-09-16T06:18:54;98840.22;;;30.32;49.72
11343;BME280;5726;42.160;24.746;2022-09-16T06:21:20;98831.75;;;30.39;50.11
11343;BME280;5726;42.160;24.746;2022-09-16T06:23:46;98833.66;;;30.41;49.83
11343;BME280;5726;42.160;24.746;2022-09-16T06:26:17;98837.44;;;30.47;49.97
11343;BME280;5726;42.160;24.746;2022-09-16T06:28:43;98832.44;;;30.27;50.51
11343;BME280;5726;42.160;24.746;2022-09-16T06:31:21;98841.19;;;29.93;51.50
11343;BME280;5726;42.160;24.746;2022-09-16T06:33:46;98839.69;;;29.73;53.07
11343;BME280;5726;42.160;24.746;2022-09-16T06:36:23;98841.78;;;29.69;53.74
11343;BME280;5726;42.160;24.746;2022-09-16T06:38:49;98836.78;;;30.12;52.13
11343;BME280;5726;42.160;24.746;2022-09-16T06:41:17;98835.69;;;30.53;51.04
11343;BME280;5726;42.160;24.746;2022-09-16T06:43:43;98825.34;;;30.41;50.98
11343;BME280;5726;42.160;24.746;2022-09-16T06:46:14;98816.47;;;30.90;50.17
11343;BME280;5726;42.160;24.746;2022-09-16T06:48:45;98818.19;;;31.13;49.48
11343;BME280;5726;42.160;24.746;2022-09-16T06:51:13;98820.91;;;31.53;47.96
11343;BME280;5726;42.160;24.746;2022-09-16T06:53:40;98834.44;;;31.51;47.83
11343;BME280;5726;42.160;24.746;2022-09-16T06:56:08;98839.66;;;31.62;47.64
11343;BME280;5726;42.160;24.746;2022-09-16T06:58:35;98831.13;;;31.81;46.55
11343;BME280;5726;42.160;24.746;2022-09-16T07:01:10;98834.56;;;31.73;46.99
11343;BME280;5726;42.160;24.746;2022-09-16T07:03:37;98833.91;;;31.69;47.37
11343;BME280;5726;42.160;24.746;2022-09-16T07:06:02;98835.56;;;31.66;47.13
11343;BME280;5726;42.160;24.746;2022-09-16T07:08:32;98836.00;;;31.52;47.37
11343;BME280;5726;42.160;24.746;2022-09-16T07:10:59;98836.00;;;31.77;46.81
11343;BME280;5726;42.160;24.746;2022-09-16T07:13:25;98843.34;;;31.96;46.82
11343;BME280;5726;42.160;24.746;2022-09-16T07:15:51;98824.81;;;31.81;45.97
11343;BME280;5726;42.160;24.746;2022-09-16T07:18:17;98837.44;;;31.82;46.41
11343;BME280;5726;42.160;24.746;2022-09-16T07:20:42;98835.56;;;31.66;46.31
11343;BME280;5726;42.160;24.746;2022-09-16T07:23:08;98842.09;;;31.72;45.51
11343;BME280;5726;42.160;24.746;2022-09-16T07:25:33;98836.56;;;31.97;43.32
11343;BME280;5726;42.160;24.746;2022-09-16T07:27:59;98839.00;;;32.07;44.84
11343;BME280;5726;42.160;24.746;2022-09-16T07:30:25;98828.72;;;32.29;45.46
11343;BME280;5726;42.160;24.746;2022-09-16T07:32:52;98823.91;;;32.42;44.45
11343;BME280;5726;42.160;24.746;2022-09-16T07:35:17;98827.38;;;32.46;44.47
11343;BME280;5726;42.160;24.746;2022-09-16T07:37:43;98828.81;;;32.50;45.14
11343;BME280;5726;42.160;24.746;2022-09-16T07:40:09;98830.41;;;32.60;45.12
11343;BME280;5726;42.160;24.746;2022-09-16T07:42:34;98832.28;;;32.63;44.53
11343;BME280;5726;42.160;24.746;2022-09-16T07:44:59;98830.97;;;32.89;44.09
11343;BME280;5726;42.160;24.746;2022-09-16T07:47:25;98839.84;;;32.96;43.64
11343;BME280;5726;42.160;24.746;2022-09-16T07:49:50;98835.53;;;33.26;43.54
11343;BME280;5726;42.160;24.746;2022-09-16T07:52:21;98839.16;;;33.35;42.05
11343;BME280;5726;42.160;24.746;2022-09-16T07:54:48;98837.72;;;33.52;42.19
11343;BME280;5726;42.160;24.746;2022-09-16T07:57:14;98839.78;;;33.60;42.63
11343;BME280;5726;42.160;24.746;2022-09-16T07:59:40;98834.56;;;33.71;41.52
11343;BME280;5726;42.160;24.746;2022-09-16T08:02:05;98837.31;;;33.62;42.27
11343;BME280;5726;42.160;24.746;2022-09-16T08:04:31;98830.19;;;33.61;42.36
11343;BME280;5726;42.160;24.746;2022-09-16T08:06:56;98831.03;;;33.80;41.98
11343;BME280;5726;42.160;24.746;2022-09-16T08:09:21;98830.50;;;34.02;40.92
11343;BME280;5726;42.160;24.746;2022-09-16T08:11:47;98827.66;;;33.45;42.33
11343;BME280;5726;42.160;24.746;2022-09-16T08:14:13;98828.59;;;33.51;42.96
11343;BME280;5726;42.160;24.746;2022-09-16T08:16:38;98825.78;;;33.82;42.31
11343;BME280;5726;42.160;24.746;2022-09-16T08:19:03;98812.22;;;33.92;42.00
11343;BME280;5726;42.160;24.746;2022-09-16T08:21:29;98821.41;;;34.02;40.46
11343;BME280;5726;42.160;24.746;2022-09-16T08:23:56;98816.63;;;34.20;41.23
11343;BME280;5726;42.160;24.746;2022-09-16T08:26:22;98812.28;;;34.28;40.74
11343;BME280;5726;42.160;24.746;2022-09-16T08:28:49;98793.59;;;34.29;40.82
11343;BME280;5726;42.160;24.746;2022-09-16T08:31:16;98801.97;;;34.37;39.69
11343;BME280;5726;42.160;24.746;2022-09-16T08:33:42;98796.97;;;34.15;40.07
11343;BME280;5726;42.160;24.746;2022-09-16T08:36:19;98801.00;;;34.23;40.14
11343;BME280;5726;42.160;24.746;2022-09-16T08:38:47;98792.72;;;34.40;40.41
11343;BME280;5726;42.160;24.746;2022-09-16T08:46:50;98792.03;;;34.19;39.55
11343;BME280;5726;42.160;24.746;2022-09-16T08:49:38;98790.94;;;34.07;39.03
11343;BME280;5726;42.160;24.746;2022-09-16T08:52:21;98783.84;;;33.67;40.42
11343;BME280;5726;42.160;24.746;2022-09-16T08:54:52;98790.69;;;33.75;40.21
11343;BME280;5726;42.160;24.746;2022-09-16T08:57:25;98786.00;;;33.63;40.98
11343;BME280;5726;42.160;24.746;2022-09-16T09:00:12;98778.72;;;33.57;40.94
11343;BME280;5726;42.160;24.746;2022-09-16T09:02:40;98771.13;;;33.48;40.91
11343;BME280;5726;42.160;24.746;2022-09-16T09:05:16;98771.47;;;33.59;41.39
11343;BME280;5726;42.160;24.746;2022-09-16T09:07:53;98760.66;;;33.61;41.30
11343;BME280;5726;42.160;24.746;2022-09-16T09:16:16;98755.03;;;33.91;39.63
11343;BME280;5726;42.160;24.746;2022-09-16T09:18:51;98755.16;;;33.88;39.54
11343;BME280;5726;42.160;24.746;2022-09-16T09:21:33;98760.69;;;33.79;40.36
11343;BME280;5726;42.160;24.746;2022-09-16T09:24:30;98746.44;;;33.59;40.64
11343;BME280;5726;42.160;24.746;2022-09-16T09:32:15;98744.91;;;33.76;39.54
11343;BME280;5726;42.160;24.746;2022-09-16T09:35:33;98746.19;;;33.84;40.28
11343;BME280;5726;42.160;24.746;2022-09-16T09:38:03;98742.34;;;33.42;40.39
11343;BME280;5726;42.160;24.746;2022-09-16T09:40:42;98734.81;;;33.52;39.78
11343;BME280;5726;42.160;24.746;2022-09-16T09:43:30;98728.53;;;33.60;40.91
11343;BME280;5726;42.160;24.746;2022-09-16T09:46:19;98720.75;;;33.46;39.71
11343;BME280;5726;42.160;24.746;2022-09-16T09:51:33;98714.59;;;33.51;39.79
11343;BME280;5726;42.160;24.746;2022-09-16T09:54:18;98723.00;;;33.39;39.89
11343;BME280;5726;42.160;24.746;2022-09-16T09:56:49;98715.09;;;33.29;39.82
11343;BME280;5726;42.160;24.746;2022-09-16T10:02:16;98711.56;;;33.37;40.08
11343;BME280;5726;42.160;24.746;2022-09-16T10:04:43;98708.94;;;33.34;40.21
11343;BME280;5726;42.160;24.746;2022-09-16T10:07:10;98711.41;;;33.32;39.86
11343;BME280;5726;42.160;24.746;2022-09-16T10:12:40;98695.28;;;33.18;40.18
11343;BME280;5726;42.160;24.746;2022-09-16T10:15:16;98691.91;;;33.23;39.89
11343;BME280;5726;42.160;24.746;2022-09-16T10:17:47;98690.34;;;33.13;40.59
11343;BME280;5726;42.160;24.746;2022-09-16T10:20:28;98690.97;;;33.17;40.37
11343;BME280;5726;42.160;24.746;2022-09-16T10:22:59;98687.28;;;33.29;40.45
11343;BME280;5726;42.160;24.746;2022-09-16T10:25:25;98688.53;;;33.28;38.81
11343;BME280;5726;42.160;24.746;2022-09-16T10:27:59;98689.41;;;33.07;39.23
11343;BME280;5726;42.160;24.746;2022-09-16T10:30:31;98691.91;;;33.23;39.14
11343;BME280;5726;42.160;24.746;2022-09-16T10:33:03;98690.28;;;33.43;38.99
11343;BME280;5726;42.160;24.746;2022-09-16T10:35:35;98701.38;;;33.34;38.49
11343;BME280;5726;42.160;24.746;2022-09-16T10:38:17;98696.97;;;33.45;38.58
11343;BME280;5726;42.160;24.746;2022-09-16T10:41:19;98692.41;;;33.78;37.40
11343;BME280;5726;42.160;24.746;2022-09-16T10:43:53;98698.88;;;33.66;37.62
11343;BME280;5726;42.160;24.746;2022-09-16T10:46:20;98682.78;;;33.61;38.49
11343;BME280;5726;42.160;24.746;2022-09-16T10:48:48;98687.13;;;33.71;38.16
11343;BME280;5726;42.160;24.746;2022-09-16T10:51:25;98683.13;;;33.72;36.83
11343;BME280;5726;42.160;24.746;2022-09-16T10:53:53;98672.84;;;33.42;37.42
11343;BME280;5726;42.160;24.746;2022-09-16T10:56:23;98680.81;;;33.80;36.64
11343;BME280;5726;42.160;24.746;2022-09-16T10:59:01;98675.06;;;33.65;35.81
11343;BME280;5726;42.160;24.746;2022-09-16T11:01:39;98685.47;;;33.91;36.11
11343;BME280;5726;42.160;24.746;2022-09-16T11:29:33;98631.09;;;34.76;33.16
11343;BME280;5726;42.160;24.746;2022-09-16T11:37:32;98627.19;;;34.91;33.68
11343;BME280;5726;42.160;24.746;2022-09-16T11:40:31;98621.91;;;34.93;34.15
11343;BME280;5726;42.160;24.746;2022-09-16T11:43:21;98619.72;;;34.97;33.24
11343;BME280;5726;42.160;24.746;2022-09-16T11:53:44;98607.25;;;34.75;33.62
11343;BME280;5726;42.160;24.746;2022-09-16T11:59:09;98597.66;;;34.76;33.79
11343;BME280;5726;42.160;24.746;2022-09-16T12:01:41;98593.59;;;34.77;33.79
11343;BME280;5726;42.160;24.746;2022-09-16T12:04:29;98598.41;;;35.18;33.42
11343;BME280;5726;42.160;24.746;2022-09-16T12:07:23;98592.22;;;34.73;34.21
11343;BME280;5726;42.160;24.746;2022-09-16T12:09:58;98601.50;;;34.79;34.42
11343;BME280;5726;42.160;24.746;2022-09-16T12:12:32;98608.91;;;34.82;33.64
11343;BME280;5726;42.160;24.746;2022-09-16T12:15:02;98608.97;;;34.64;33.26
11343;BME280;5726;42.160;24.746;2022-09-16T12:17:33;98612.81;;;34.75;33.71
11343;BME280;5726;42.160;24.746;2022-09-16T12:20:05;98609.22;;;35.16;33.59
11343;BME280;5726;42.160;24.746;2022-09-16T12:22:39;98599.63;;;35.17;33.82
11343;BME280;5726;42.160;24.746;2022-09-16T12:25:12;98605.25;;;35.08;33.41
11343;BME280;5726;42.160;24.746;2022-09-16T12:27:43;98598.75;;;35.11;32.64
11343;BME280;5726;42.160;24.746;2022-09-16T12:32:56;98600.91;;;35.07;32.09
11343;BME280;5726;42.160;24.746;2022-09-16T12:35:31;98594.91;;;34.99;33.33
11343;BME280;5726;42.160;24.746;2022-09-16T12:37:58;98611.91;;;34.69;33.78
11343;BME280;5726;42.160;24.746;2022-09-16T12:40:26;98608.91;;;34.49;35.64
11343;BME280;5726;42.160;24.746;2022-09-16T12:51:16;98619.88;;;32.68;40.87
11343;BME280;5726;42.160;24.746;2022-09-16T12:53:48;98626.94;;;32.60;41.21
11343;BME280;5726;42.160;24.746;2022-09-16T12:56:26;98628.25;;;32.77;41.97
11343;BME280;5726;42.160;24.746;2022-09-16T12:59:05;98627.19;;;32.74;41.84
11343;BME280;5726;42.160;24.746;2022-09-16T13:01:46;98636.09;;;32.69;41.83
11343;BME280;5726;42.160;24.746;2022-09-16T13:04:22;98634.00;;;32.82;41.82
11343;BME280;5726;42.160;24.746;2022-09-16T13:06:52;98634.25;;;32.96;41.87
11343;BME280;5726;42.160;24.746;2022-09-16T13:09:26;98635.66;;;33.01;41.45
11343;BME280;5726;42.160;24.746;2022-09-16T13:12:03;98641.63;;;32.69;41.32
11343;BME280;5726;42.160;24.746;2022-09-16T13:14:32;98649.81;;;32.64;42.17
11343;BME280;5726;42.160;24.746;2022-09-16T13:17:01;98660.66;;;32.80;41.61
11343;BME280;5726;42.160;24.746;2022-09-16T13:19:40;98662.41;;;32.86;41.93
11343;BME280;5726;42.160;24.746;2022-09-16T13:22:28;98667.88;;;32.68;42.31
11343;BME280;5726;42.160;24.746;2022-09-16T13:27:35;98665.78;;;32.81;41.98
11343;BME280;5726;42.160;24.746;2022-09-16T13:32:38;98670.47;;;32.63;42.77
11343;BME280;5726;42.160;24.746;2022-09-16T13:35:21;98670.13;;;32.39;43.00
11343;BME280;5726;42.160;24.746;2022-09-16T13:37:50;98666.53;;;32.73;41.42
11343;BME280;5726;42.160;24.746;2022-09-16T13:40:26;98676.78;;;32.42;42.60
11343;BME280;5726;42.160;24.746;2022-09-16T13:45:43;98663.69;;;32.21;43.25
11343;BME280;5726;42.160;24.746;2022-09-16T13:48:11;98670.66;;;32.26;42.88
11343;BME280;5726;42.160;24.746;2022-09-16T13:50:44;98661.53;;;32.04;42.44
11343;BME280;5726;42.160;24.746;2022-09-16T13:53:20;98654.78;;;32.05;43.34
11343;BME280;5726;42.160;24.746;2022-09-16T13:55:48;98657.56;;;32.05;43.26
11343;BME280;5726;42.160;24.746;2022-09-16T13:58:25;98668.28;;;32.15;43.06
11343;BME280;5726;42.160;24.746;2022-09-16T14:14:33;98700.00;;;31.68;44.92
11343;BME280;5726;42.160;24.746;2022-09-16T14:17:03;98695.19;;;31.47;44.41
11343;BME280;5726;42.160;24.746;2022-09-16T14:19:34;98687.41;;;31.55;43.90
11343;BME280;5726;42.160;24.746;2022-09-16T14:22:21;98684.22;;;31.44;44.25
11343;BME280;5726;42.160;24.746;2022-09-16T14:24:49;98670.50;;;31.40;44.54
11343;BME280;5726;42.160;24.746;2022-09-16T14:30:02;98669.25;;;31.41;43.88
11343;BME280;5726;42.160;24.746;2022-09-16T14:32:30;98674.78;;;31.29;44.34
11343;BME280;5726;42.160;24.746;2022-09-16T14:34:59;98677.44;;;31.33;44.24
11343;BME280;5726;42.160;24.746;2022-09-16T14:37:28;98692.53;;;31.32;44.38
11343;BME280;5726;42.160;24.746;2022-09-16T14:40:02;98697.41;;;31.03;44.98
11343;BME280;5726;42.160;24.746;2022-09-16T14:42:28;98701.53;;;31.11;45.24
11343;BME280;5726;42.160;24.746;2022-09-16T14:44:55;98689.66;;;31.23;44.50
11343;BME280;5726;42.160;24.746;2022-09-16T14:47:31;98691.97;;;31.37;44.51
11343;BME280;5726;42.160;24.746;2022-09-16T14:50:06;98696.97;;;31.17;45.05
11343;BME280;5726;42.160;24.746;2022-09-16T14:52:34;98707.03;;;31.23;44.23
11343;BME280;5726;42.160;24.746;2022-09-16T14:55:00;98718.81;;;31.27;44.48
11343;BME280;5726;42.160;24.746;2022-09-16T14:57:27;98719.59;;;31.52;43.80
11343;BME280;5726;42.160;24.746;2022-09-16T14:59:59;98719.88;;;31.30;44.47
11343;BME280;5726;42.160;24.746;2022-09-16T15:05:32;98723.66;;;31.36;44.77
11343;BME280;5726;42.160;24.746;2022-09-16T15:10:33;98718.03;;;31.39;45.03
11343;BME280;5726;42.160;24.746;2022-09-16T15:13:03;98715.25;;;31.14;44.82
11343;BME280;5726;42.160;24.746;2022-09-16T15:15:31;98718.03;;;31.02;45.08
11343;BME280;5726;42.160;24.746;2022-09-16T15:18:05;98712.81;;;31.29;44.29
11343;BME280;5726;42.160;24.746;2022-09-16T15:20:34;98698.97;;;31.29;43.97
11343;BME280;5726;42.160;24.746;2022-09-16T15:23:03;98686.22;;;31.19;43.30
11343;BME280;5726;42.160;24.746;2022-09-16T15:25:32;98694.19;;;31.04;43.91
11343;BME280;5726;42.160;24.746;2022-09-16T15:28:18;98705.94;;;30.96;43.70
11343;BME280;5726;42.160;24.746;2022-09-16T15:30:51;98707.31;;;30.63;44.87
11343;BME280;5726;42.160;24.746;2022-09-16T15:33:35;98702.44;;;30.67;44.85
11343;BME280;5726;42.160;24.746;2022-09-16T15:36:02;98710.34;;;30.81;44.06
11343;BME280;5726;42.160;24.746;2022-09-16T15:38:29;98693.59;;;30.72;43.75
11343;BME280;5726;42.160;24.746;2022-09-16T15:41:09;98683.94;;;30.64;44.57
11343;BME280;5726;42.160;24.746;2022-09-16T15:43:43;98686.03;;;30.60;44.05
11343;BME280;5726;42.160;24.746;2022-09-16T15:48:45;98687.25;;;30.59;44.84
11343;BME280;5726;42.160;24.746;2022-09-16T15:51:32;98678.38;;;30.52;45.05
11343;BME280;5726;42.160;24.746;2022-09-16T15:54:22;98691.44;;;30.23;46.13
11343;BME280;5726;42.160;24.746;2022-09-16T15:57:05;98689.44;;;30.24;46.48